Time;durP1;ratioP1;P1;durP2;ratioP2;P2;SDS_P1;SDS_P2;PMS_P1;PMS_P2;Temp;Humidity;BMP_temperature;BMP_pressure;BME280_temperature;BME280_humidity;BME280_pressure;Samples;Min_cycle;Max_cycle;Signal;HPM_P1;HPM_P2
2022/05/09 00:00:06;;;;;;;11.48;2.47;;;;;;;9.47;71.39;102786.00;5093183;28;20028;-40
2022/05/09 00:02:32;;;;;;;10.25;2.60;;;;;;;9.18;71.83;102783.31;5092769;28;20089;-40
2022/05/09 00:04:58;;;;;;;10.38;2.85;;;;;;;9.23;71.99;102781.97;5093138;28;20061;-40
2022/05/09 00:07:23;;;;;;;10.32;2.80;;;;;;;9.16;72.79;102783.44;5094783;28;20022;-40
2022/05/09 00:09:48;;;;;;;14.65;3.50;;;;;;;9.03;72.69;102793.97;5096487;28;20107;-39
2022/05/09 00:12:14;;;;;;;12.85;2.63;;;;;;;8.98;72.68;102782.41;5096484;28;20024;-40
2022/05/09 00:14:39;;;;;;;11.23;3.05;;;;;;;9.08;72.70;102779.84;5096396;28;20059;-40
2022/05/09 00:17:05;;;;;;;11.60;2.83;;;;;;;9.03;72.37;102775.06;5096753;28;20501;-40
2022/05/09 00:19:30;;;;;;;11.93;2.83;;;;;;;8.86;73.79;102773.06;5096628;28;20026;-39
2022/05/09 00:21:56;;;;;;;13.95;3.38;;;;;;;9.01;73.40;102771.81;5096343;28;20463;-39
2022/05/09 00:24:22;;;;;;;11.30;2.83;;;;;;;8.90;73.62;102771.91;5095155;28;20084;-44
2022/05/09 00:26:49;;;;;;;17.80;3.30;;;;;;;8.95;73.68;102772.34;5096542;28;20433;-39
2022/05/09 00:29:16;;;;;;;17.15;3.15;;;;;;;9.03;73.77;102764.75;5096317;28;20024;-39
2022/05/09 00:31:45;;;;;;;16.70;3.10;;;;;;;8.86;73.41;102773.06;5096184;28;20020;-38
2022/05/09 00:34:11;;;;;;;18.73;3.47;;;;;;;8.72;73.99;102766.50;5096683;28;20024;-39
2022/05/09 00:36:38;;;;;;;13.35;3.00;;;;;;;8.67;74.80;102761.72;5096310;28;20016;-39
2022/05/09 00:39:04;;;;;;;17.88;3.95;;;;;;;8.65;75.16;102766.16;5096575;28;20028;-39
2022/05/09 00:41:37;;;;;;;15.65;3.17;;;;;;;8.58;75.06;102752.97;5096245;28;20076;-40
2022/05/09 00:44:09;;;;;;;12.55;3.08;;;;;;;8.45;75.58;102764.41;5096313;28;20079;-39
2022/05/09 00:46:36;;;;;;;16.27;3.00;;;;;;;8.40;75.46;102762.22;5096015;28;20031;-39
2022/05/09 00:49:17;;;;;;;17.77;3.67;;;;;;;8.47;76.22;102758.19;5096451;28;20020;-39
2022/05/09 00:51:46;;;;;;;11.90;2.70;;;;;;;8.51;75.48;102753.59;5095854;28;20115;-39
2022/05/09 00:54:11;;;;;;;11.23;3.05;;;;;;;8.40;76.02;102757.06;5096317;28;20020;-39
2022/05/09 00:56:46;;;;;;;13.23;3.03;;;;;;;8.19;76.61;102756.16;5095652;28;20101;-39
2022/05/09 00:59:16;;;;;;;20.25;3.30;;;;;;;8.23;76.66;102754.97;5095678;28;20081;-39
2022/05/09 01:01:41;;;;;;;11.25;3.22;;;;;;;8.28;77.04;102753.66;5095926;28;20023;-39
2022/05/09 01:04:16;;;;;;;12.85;3.10;;;;;;;8.23;77.32;102750.66;5095868;28;20111;-39
2022/05/09 01:06:42;;;;;;;11.88;3.20;;;;;;;8.43;76.87;102755.97;5096108;28;20414;-39
2022/05/09 01:09:10;;;;;;;13.15;3.00;;;;;;;8.44;76.76;102737.81;5095672;28;20119;-39
2022/05/09 01:11:37;;;;;;;16.38;3.50;;;;;;;8.33;77.33;102750.72;5096263;28;20028;-39
2022/05/09 01:14:10;;;;;;;18.58;3.60;;;;;;;8.36;77.38;102748.72;5095644;28;20024;-39
2022/05/09 01:16:36;;;;;;;12.10;2.92;;;;;;;8.23;77.15;102752.38;5095325;28;20020;-39
2022/05/09 01:19:14;;;;;;;11.73;3.40;;;;;;;8.31;77.81;102752.59;5094566;28;20032;-39
2022/05/09 01:21:40;;;;;;;12.35;3.10;;;;;;;8.26;77.47;102741.88;5095301;28;20024;-44
2022/05/09 01:24:18;;;;;;;16.08;3.72;;;;;;;8.19;78.00;102748.44;5095205;28;20097;-39
2022/05/09 01:26:43;;;;;;;14.95;3.92;;;;;;;8.09;78.54;102748.38;5095631;28;20348;-39
2022/05/09 01:29:17;;;;;;;17.45;3.28;;;;;;;7.99;79.01;102737.97;5095356;28;20027;-39
2022/05/09 01:31:43;;;;;;;11.02;3.28;;;;;;;8.24;78.82;102739.41;5094947;28;20115;-38
2022/05/09 01:34:10;;;;;;;13.73;3.22;;;;;;;8.17;78.16;102735.69;5096065;28;20047;-44
2022/05/09 01:36:36;;;;;;;12.88;3.13;;;;;;;8.10;78.82;102734.53;5094882;28;20106;-39
2022/05/09 01:39:05;;;;;;;18.63;4.38;;;;;;;8.10;79.17;102744.84;5093740;28;20488;-40
2022/05/09 01:41:45;;;;;;;13.25;3.03;;;;;;;8.28;79.34;102740.78;5094957;28;20445;-39
2022/05/09 01:44:12;;;;;;;23.90;3.85;;;;;;;8.40;77.92;102730.44;5094841;28;20030;-39
2022/05/09 01:49:29;;;;;;;12.02;3.20;;;;;;;8.41;77.72;102730.34;5095066;28;20111;-42
2022/05/09 01:49:31;;;;;;;10.90;3.17;;;;;;;8.26;78.29;102732.38;5094733;28;20028;-41
2022/05/09 01:51:58;;;;;;;13.88;3.00;;;;;;;8.34;77.50;102726.59;5095219;28;20052;-42
2022/05/09 01:54:24;;;;;;;20.88;3.28;;;;;;;8.24;77.87;102734.25;5094633;28;20428;-40
2022/05/09 01:56:49;;;;;;;17.30;3.72;;;;;;;8.25;78.49;102727.34;5094520;28;20020;-39
2022/05/09 01:59:15;;;;;;;11.88;3.50;;;;;;;8.32;78.67;102725.91;5094485;28;20016;-40
2022/05/09 02:01:42;;;;;;;12.25;3.47;;;;;;;8.16;79.44;102728.09;5094500;28;20069;-40
2022/05/09 02:04:07;;;;;;;15.90;3.88;;;;;;;8.24;78.55;102725.72;5093237;28;20480;-40
2022/05/09 02:06:33;;;;;;;14.60;3.72;;;;;;;8.04;78.91;102722.97;5094451;28;20077;-39
2022/05/09 02:08:58;;;;;;;9.32;3.63;;;;;;;7.94;79.33;102723.81;5094812;28;20046;-40
2022/05/09 02:11:24;;;;;;;14.05;3.63;;;;;;;8.06;79.17;102715.94;5094331;28;20467;-40
2022/05/09 02:13:49;;;;;;;16.80;3.40;;;;;;;8.04;78.23;102711.84;5094295;28;20101;-40
2022/05/09 02:16:15;;;;;;;17.17;4.20;;;;;;;8.04;79.02;102719.59;5094730;28;20024;-40
2022/05/09 02:18:40;;;;;;;11.73;3.20;;;;;;;8.01;78.60;102725.78;5094159;28;20028;-40
2022/05/09 02:21:05;;;;;;;14.68;3.38;;;;;;;7.85;79.10;102718.47;5094568;28;20027;-40
2022/05/09 02:23:32;;;;;;;14.55;3.30;;;;;;;8.00;79.25;102713.88;5093837;28;20028;-40
2022/05/09 02:25:58;;;;;;;20.52;3.80;;;;;;;8.13;78.31;102711.13;5094335;28;20033;-40
2022/05/09 02:28:23;;;;;;;18.50;3.88;;;;;;;7.97;78.56;102713.28;5094263;28;20150;-40
2022/05/09 02:30:49;;;;;;;17.63;3.88;;;;;;;7.96;79.02;102722.75;5094325;28;20050;-44
2022/05/09 02:33:14;;;;;;;9.82;3.28;;;;;;;8.09;78.32;102715.69;5093897;28;20027;-40
2022/05/09 02:35:40;;;;;;;15.82;3.80;;;;;;;8.17;78.37;102714.25;5094072;28;20032;-40
2022/05/09 02:38:06;;;;;;;13.95;3.30;;;;;;;8.24;77.59;102720.56;5094172;28;20020;-40
2022/05/09 02:40:33;;;;;;;15.45;3.67;;;;;;;8.14;78.41;102716.16;5093908;28;20047;-40
2022/05/09 02:42:59;;;;;;;17.10;3.65;;;;;;;8.15;77.54;102709.25;5094003;28;20467;-40
2022/05/09 02:45:25;;;;;;;11.85;3.33;;;;;;;8.18;76.84;102716.72;5094023;28;20016;-39
2022/05/09 02:47:51;;;;;;;18.67;4.20;;;;;;;8.07;77.80;102703.88;5093845;28;20375;-39
2022/05/09 02:50:17;;;;;;;15.02;3.70;;;;;;;7.82;78.14;102707.59;5093704;28;20494;-41
2022/05/09 02:52:43;;;;;;;15.73;3.70;;;;;;;7.67;78.08;102700.13;5093955;28;20024;-40
2022/05/09 02:55:10;;;;;;;15.25;3.42;;;;;;;7.68;79.24;102700.94;5093520;28;20490;-40
2022/05/09 02:57:37;;;;;;;13.45;3.30;;;;;;;7.82;77.76;102707.59;5093543;28;20020;-40
2022/05/09 03:00:10;;;;;;;10.00;3.65;;;;;;;7.87;78.78;102705.47;5093482;28;20024;-41
2022/05/09 03:02:36;;;;;;;12.65;3.90;;;;;;;8.03;77.38;102703.31;5093380;28;20402;-39
2022/05/09 03:05:01;;;;;;;18.40;3.58;;;;;;;8.01;77.23;102702.63;5093422;28;20462;-40
2022/05/09 03:07:27;;;;;;;14.57;3.80;;;;;;;8.06;77.38;102703.06;5092218;28;20103;-40
2022/05/09 03:09:52;;;;;;;14.50;3.35;;;;;;;8.02;77.00;102700.84;5093327;28;20120;-39
2022/05/09 03:12:19;;;;;;;19.65;4.13;;;;;;;8.01;76.78;102699.22;5093411;28;20024;-40
2022/05/09 03:14:46;;;;;;;17.42;3.60;;;;;;;8.01;76.92;102697.47;5093853;28;20034;-40
2022/05/09 03:17:11;;;;;;;21.20;4.05;;;;;;;7.90;77.00;102700.88;5093852;28;20028;-40
2022/05/09 03:19:37;;;;;;;14.20;4.03;;;;;;;7.88;77.82;102695.06;5093324;28;20031;-40
2022/05/09 03:22:03;;;;;;;13.38;3.92;;;;;;;7.76;77.95;102697.78;5093266;28;20055;-39
2022/05/09 03:24:28;;;;;;;10.98;3.63;;;;;;;7.71;77.79;102689.59;5091807;28;20100;-39
2022/05/09 03:26:53;;;;;;;9.23;3.40;;;;;;;7.61;77.44;102681.81;5093210;28;20107;-38
2022/05/09 03:29:20;;;;;;;11.27;4.15;;;;;;;7.65;78.60;102685.75;5093484;28;20020;-40
2022/05/09 03:31:47;;;;;;;16.50;3.80;;;;;;;7.59;78.18;102679.34;5093862;28;20020;-40
2022/05/09 03:34:15;;;;;;;20.40;3.92;;;;;;;7.43;79.02;102681.50;5093113;28;20055;-39
2022/05/09 03:36:40;;;;;;;15.60;4.20;;;;;;;7.39;78.94;102680.91;5093144;28;20471;-40
2022/05/09 03:39:06;;;;;;;16.95;3.53;;;;;;;7.49;78.81;102678.44;5093207;28;20020;-40
2022/05/09 03:41:31;;;;;;;14.00;4.22;;;;;;;7.53;78.93;102677.25;5093741;28;20027;-40
2022/05/09 03:43:57;;;;;;;11.95;3.95;;;;;;;7.48;78.79;102679.38;5097153;28;20467;-40
2022/05/09 03:46:22;;;;;;;18.55;3.70;;;;;;;7.48;78.62;102681.97;5097094;28;20024;-40
2022/05/09 03:48:48;;;;;;;15.45;4.10;;;;;;;7.34;80.01;102684.78;5097359;28;20075;-40
2022/05/09 03:51:13;;;;;;;11.75;4.80;;;;;;;7.55;79.77;102684.84;5097637;28;20083;-41
2022/05/09 03:53:39;;;;;;;16.90;4.57;;;;;;;7.44;78.88;102677.97;5097019;28;20067;-40
2022/05/09 03:56:05;;;;;;;9.25;3.50;;;;;;;7.44;79.37;102676.22;5097190;28;20425;-42
2022/05/09 03:58:30;;;;;;;17.83;4.40;;;;;;;7.55;78.49;102677.13;5096911;28;20028;-40
2022/05/09 04:00:56;;;;;;;14.45;4.15;;;;;;;7.55;77.76;102664.28;5096840;28;20039;-39
2022/05/09 04:03:21;;;;;;;23.05;4.53;;;;;;;7.67;77.48;102668.44;5096785;28;20055;-40
2022/05/09 04:05:46;;;;;;;17.33;4.63;;;;;;;7.59;77.59;102663.91;5096993;28;20107;-40
2022/05/09 04:08:17;;;;;;;16.17;4.07;;;;;;;7.52;78.02;102672.25;5097272;28;20504;-41
2022/05/09 04:10:44;;;;;;;16.88;4.20;;;;;;;7.46;77.55;102669.19;5096519;28;20016;-40
2022/05/09 04:13:10;;;;;;;17.55;4.13;;;;;;;7.35;78.65;102668.41;5096590;28;20028;-41
2022/05/09 04:18:22;;;;;;;20.50;3.80;;;;;;;7.52;78.41;102655.03;5097304;28;20043;-39
2022/05/09 04:20:50;;;;;;;17.75;4.38;;;;;;;7.68;78.65;102659.78;5078257;28;20031;-41
2022/05/09 04:23:16;;;;;;;14.82;4.38;;;;;;;7.50;78.62;102659.47;5096340;28;20027;-40
2022/05/09 04:25:42;;;;;;;12.73;4.13;;;;;;;7.58;78.89;102659.69;5096204;28;20055;-41
2022/05/09 04:28:08;;;;;;;18.13;4.45;;;;;;;7.54;77.97;102644.59;5096596;28;20020;-40
2022/05/09 04:30:35;;;;;;;14.30;4.00;;;;;;;7.57;77.88;102660.66;5096528;28;20072;-40
2022/05/09 04:33:00;;;;;;;13.82;4.10;;;;;;;7.47;78.92;102649.44;5096200;28;20069;-40
2022/05/09 04:35:26;;;;;;;17.50;4.18;;;;;;;7.33;79.58;102624.78;5096431;28;20032;-40
2022/05/09 04:37:53;;;;;;;16.38;4.15;;;;;;;7.61;78.09;102656.88;5096043;28;20020;-41
2022/05/09 04:40:24;;;;;;;14.38;4.10;;;;;;;7.79;77.64;102664.06;5096313;28;20024;-40
2022/05/09 04:42:51;;;;;;;17.27;4.38;;;;;;;7.76;77.68;102664.31;5096040;28;20437;-40
2022/05/09 04:45:18;;;;;;;13.82;4.40;;;;;;;7.89;77.09;102654.69;5096323;28;20101;-41
2022/05/09 04:47:45;;;;;;;17.58;4.93;;;;;;;7.85;77.30;102659.28;5096336;28;20034;-40
2022/05/09 04:50:13;;;;;;;13.00;4.38;;;;;;;7.96;77.93;102658.41;5096059;28;20024;-52
2022/05/09 04:52:39;;;;;;;17.95;4.50;;;;;;;7.87;77.58;102656.56;5096049;28;20051;-40
2022/05/09 04:55:05;;;;;;;13.30;3.92;;;;;;;7.79;77.61;102654.59;5095479;28;20032;-40
2022/05/09 04:57:31;;;;;;;16.92;4.90;;;;;;;7.85;78.43;102648.13;5095971;28;20478;-40
2022/05/09 04:59:57;;;;;;;15.10;4.13;;;;;;;7.89;78.02;102655.50;5095972;28;20055;-41
2022/05/09 05:02:22;;;;;;;16.63;4.50;;;;;;;8.01;77.88;102647.72;5095905;28;20463;-40
2022/05/09 05:04:48;;;;;;;15.05;4.68;;;;;;;8.21;76.15;102643.53;5095784;28;20024;-40
2022/05/09 05:07:13;;;;;;;14.32;4.38;;;;;;;8.04;77.26;102642.34;5095414;28;20023;-40
2022/05/09 05:09:38;;;;;;;18.88;5.03;;;;;;;8.17;76.54;102640.41;5095355;28;20028;-41
2022/05/09 05:12:04;;;;;;;13.80;4.47;;;;;;;8.16;75.93;102641.31;5095696;28;20031;-43
2022/05/09 05:14:29;;;;;;;14.35;4.72;;;;;;;8.11;76.94;102644.31;5095640;28;20024;-40
2022/05/09 05:17:00;;;;;;;17.17;4.85;;;;;;;8.14;76.24;102641.47;5095177;28;20035;-40
2022/05/09 05:19:31;;;;;;;21.48;4.70;;;;;;;8.13;76.32;102644.97;5095285;28;20363;-40
2022/05/09 05:21:59;;;;;;;16.25;4.78;;;;;;;8.17;76.09;102640.41;5095511;28;20027;-41
2022/05/09 05:24:24;;;;;;;18.75;4.70;;;;;;;8.05;75.93;102636.22;5095230;28;20056;-40
2022/05/09 05:26:51;;;;;;;11.05;4.70;;;;;;;8.11;76.26;102635.72;5095162;28;20424;-42
2022/05/09 05:29:17;;;;;;;21.70;4.68;;;;;;;8.14;75.97;102632.91;5095373;28;20016;-41
2022/05/09 05:31:43;;;;;;;17.75;4.70;;;;;;;8.43;75.48;102629.72;5095695;28;20108;-41
2022/05/09 05:34:08;;;;;;;14.02;4.60;;;;;;;8.56;74.88;102632.91;5094882;28;20051;-42
2022/05/09 05:36:33;;;;;;;15.18;4.50;;;;;;;8.80;74.01;102638.59;5094849;28;20019;-39
2022/05/09 05:38:59;;;;;;;15.20;4.43;;;;;;;8.95;72.95;102640.84;5095170;28;20016;-40
2022/05/09 05:41:24;;;;;;;14.32;4.40;;;;;;;9.04;72.44;102640.84;5095138;28;20023;-40
2022/05/09 05:43:49;;;;;;;15.75;4.22;;;;;;;8.98;72.54;102623.31;5095071;28;20398;-40
2022/05/09 05:46:15;;;;;;;14.48;4.47;;;;;;;8.90;73.00;102638.63;5094766;28;20024;-41
2022/05/09 05:48:41;;;;;;;14.95;5.10;;;;;;;9.16;72.12;102646.72;5094687;28;20043;-41
2022/05/09 05:51:07;;;;;;;14.40;4.40;;;;;;;9.58;71.37;102631.03;5094886;28;20426;-40
2022/05/09 05:53:34;;;;;;;19.33;4.95;;;;;;;14.84;55.64;102635.97;5095148;28;20024;-41
2022/05/09 05:56:00;;;;;;;18.13;4.82;;;;;;;18.25;44.48;102635.00;5094722;28;20020;-41
2022/05/09 05:58:27;;;;;;;16.40;4.75;;;;;;;19.89;40.37;102631.38;5094518;28;20030;-39
2022/05/09 06:00:52;;;;;;;17.15;4.28;;;;;;;20.42;38.67;102636.47;5094746;28;20458;-40
2022/05/09 06:03:20;;;;;;;17.92;4.32;;;;;;;21.71;36.16;102640.59;5094436;28;20030;-41
2022/05/09 06:05:45;;;;;;;16.40;4.43;;;;;;;22.11;35.08;102645.47;5094132;28;20020;-42
2022/05/09 06:08:11;;;;;;;16.90;4.35;;;;;;;22.28;34.81;102646.50;5094551;28;20039;-42
2022/05/09 06:10:36;;;;;;;14.98;4.57;;;;;;;22.32;34.73;102643.44;5094188;28;20470;-41
2022/05/09 06:13:03;;;;;;;16.08;4.22;;;;;;;23.12;32.96;102630.84;5094094;28;20020;-42
2022/05/09 06:15:29;;;;;;;15.30;4.13;;;;;;;23.72;32.58;102624.59;5094073;28;20030;-41
2022/05/09 06:17:59;;;;;;;14.65;4.28;;;;;;;23.73;31.81;102631.47;5094386;28;20020;-41
2022/05/09 06:20:26;;;;;;;12.98;4.10;;;;;;;24.05;30.81;102628.47;5094408;28;20051;-40
2022/05/09 06:22:52;;;;;;;15.65;4.57;;;;;;;24.15;31.70;102636.59;5092697;28;20016;-42
2022/05/09 06:25:18;;;;;;;12.90;3.80;;;;;;;24.47;30.13;102634.34;5093850;28;20093;-41
2022/05/09 06:27:43;;;;;;;20.83;4.85;;;;;;;23.87;31.25;102630.22;5093948;28;20020;-41
2022/05/09 06:30:12;;;;;;;17.80;4.50;;;;;;;24.98;29.64;102629.97;5093842;28;20047;-41
2022/05/09 06:32:37;;;;;;;21.10;4.45;;;;;;;25.10;29.81;102627.25;5094169;28;20262;-41
2022/05/09 06:35:07;;;;;;;15.20;4.18;;;;;;;26.18;28.18;102634.94;5093644;28;20150;-42
2022/05/09 06:37:34;;;;;;;14.68;4.13;;;;;;;25.86;28.20;102624.97;5094055;28;20024;-42
2022/05/09 06:40:00;;;;;;;14.95;4.38;;;;;;;25.28;28.89;102614.88;5093693;28;20024;-42
2022/05/09 06:42:27;;;;;;;12.57;4.20;;;;;;;25.56;28.37;102628.00;5093693;28;20032;-40
2022/05/09 06:44:53;;;;;;;13.98;3.72;;;;;;;25.82;27.93;102620.41;5093912;28;20024;-41
2022/05/09 06:47:18;;;;;;;10.48;3.80;;;;;;;26.72;27.41;102624.38;5093690;28;20100;-41
2022/05/09 06:49:43;;;;;;;15.47;4.40;;;;;;;27.04;28.05;102626.22;5093441;28;20020;-42
2022/05/09 06:52:09;;;;;;;10.97;4.00;;;;;;;26.08;27.71;102624.19;5093804;28;20265;-41
2022/05/09 06:54:34;;;;;;;11.60;3.97;;;;;;;26.30;26.79;102624.19;5093783;28;20269;-41
2022/05/09 06:56:59;;;;;;;13.17;3.50;;;;;;;25.87;27.69;102623.94;5093890;28;20028;-41
2022/05/09 06:59:24;;;;;;;12.25;3.88;;;;;;;26.04;27.23;102615.94;5092781;28;20258;-41
2022/05/09 07:01:50;;;;;;;12.38;4.03;;;;;;;25.82;27.51;102615.94;5093721;28;20020;-54
2022/05/09 07:04:16;;;;;;;16.00;4.00;;;;;;;26.61;26.67;102617.38;5093613;28;20027;-41
2022/05/09 07:06:42;;;;;;;15.23;3.65;;;;;;;27.15;26.27;102624.47;5093660;28;20485;-41
2022/05/09 07:09:10;;;;;;;10.85;3.30;;;;;;;27.09;25.77;102623.63;5093342;28;20024;-41
2022/05/09 07:11:36;;;;;;;18.27;3.58;;;;;;;27.20;26.19;102621.88;5094162;28;20028;-40
2022/05/09 07:14:02;;;;;;;16.00;3.80;;;;;;;26.51;26.43;102628.69;5092151;28;20085;-41
2022/05/09 07:16:27;;;;;;;11.55;3.80;;;;;;;26.39;26.57;102620.03;5094407;28;20035;-39
2022/05/09 07:18:52;;;;;;;19.63;3.75;;;;;;;26.29;26.13;102619.91;5097533;28;20421;-41
2022/05/09 07:21:19;;;;;;;19.30;3.92;;;;;;;26.18;26.93;102619.03;5097891;28;20032;-40
2022/05/09 07:23:44;;;;;;;18.05;3.83;;;;;;;24.60;28.86;102619.25;5097617;28;20065;-41
2022/05/09 07:26:10;;;;;;;12.80;4.00;;;;;;;25.51;29.14;102617.31;5097326;28;20016;-41
2022/05/09 07:28:35;;;;;;;16.15;4.07;;;;;;;24.49;30.15;102613.00;5097527;28;20031;-41
2022/05/09 07:31:00;;;;;;;11.15;3.42;;;;;;;22.64;33.26;102615.91;5097599;28;20024;-41
2022/05/09 07:33:28;;;;;;;16.08;3.67;;;;;;;21.84;34.03;102619.41;5097216;28;20106;-40
2022/05/09 07:35:53;;;;;;;10.95;3.83;;;;;;;21.26;35.71;102616.25;5097412;28;20106;-40
2022/05/09 07:38:19;;;;;;;17.35;4.00;;;;;;;20.07;37.11;102623.66;5097136;28;20127;-40
2022/05/09 07:40:45;;;;;;;18.05;4.18;;;;;;;20.66;37.61;102612.19;5095964;28;20489;-41
2022/05/09 07:43:14;;;;;;;12.32;3.42;;;;;;;20.62;37.10;102607.53;5097099;28;20047;-40
2022/05/09 07:45:40;;;;;;;12.98;4.03;;;;;;;20.76;36.89;102618.78;5097262;28;20012;-46
2022/05/09 07:48:07;;;;;;;11.82;3.60;;;;;;;20.63;35.97;102617.84;5097220;28;20028;-40
2022/05/09 07:50:32;;;;;;;13.07;3.90;;;;;;;20.45;37.13;102617.69;5097138;28;20024;-41
2022/05/09 07:52:57;;;;;;;23.15;4.53;;;;;;;21.48;36.97;102614.09;5096876;28;20042;-41
2022/05/09 07:55:23;;;;;;;9.75;3.30;;;;;;;21.84;35.74;102618.63;5096875;28;20109;-40
2022/05/09 07:57:48;;;;;;;15.40;3.58;;;;;;;21.53;34.80;102609.00;5097636;28;20030;-40
2022/05/09 08:00:15;;;;;;;12.57;3.83;;;;;;;21.24;35.95;102613.03;5096997;28;20106;-41
2022/05/09 08:02:40;;;;;;;14.82;3.45;;;;;;;21.51;34.78;102611.03;5095452;28;20054;-40
2022/05/09 08:05:14;;;;;;;18.02;3.58;;;;;;;21.06;36.15;102608.50;5096947;28;20016;-40
2022/05/09 08:07:40;;;;;;;19.17;4.03;;;;;;;20.84;36.19;102605.41;5096567;28;20024;-40
2022/05/09 08:10:07;;;;;;;13.00;3.70;;;;;;;21.24;35.78;102620.94;5096767;28;20028;-40
2022/05/09 08:12:33;;;;;;;14.48;3.90;;;;;;;21.30;36.27;102612.19;5096461;28;20028;-41
2022/05/09 08:14:58;;;;;;;12.15;4.00;;;;;;;21.42;34.24;102614.94;5097000;28;20423;-40
2022/05/09 08:17:23;;;;;;;18.80;4.00;;;;;;;21.63;35.79;102612.72;5095185;28;20024;-40
2022/05/09 08:19:54;;;;;;;12.38;3.72;;;;;;;21.51;34.08;102611.81;5096604;28;20048;-40
2022/05/09 08:22:19;;;;;;;11.65;3.85;;;;;;;21.83;34.88;102609.91;5096631;28;20027;-40
2022/05/09 08:24:45;;;;;;;11.98;3.55;;;;;;;21.93;34.51;102611.25;5094906;28;20123;-40
2022/05/09 08:27:10;;;;;;;16.35;3.53;;;;;;;22.19;33.73;102618.06;5096296;28;20068;-40
2022/05/09 08:29:35;;;;;;;11.65;3.13;;;;;;;22.53;33.31;102611.38;5094818;28;20028;-49
2022/05/09 08:32:00;;;;;;;14.25;3.80;;;;;;;23.51;33.99;102611.97;5096056;28;20165;-44
2022/05/09 08:34:26;;;;;;;12.33;3.73;;;;;;;22.27;33.85;102615.16;5096065;28;20408;-40
2022/05/09 08:36:53;;;;;;;16.17;3.43;;;;;;;22.40;33.79;102599.16;5095958;28;20297;-41
2022/05/09 08:39:19;;;;;;;13.05;3.40;;;;;;;22.30;32.79;102606.81;5096235;28;20265;-40
2022/05/09 08:41:56;;;;;;;12.85;3.30;;;;;;;22.80;32.03;102618.91;5094794;28;20028;-39
2022/05/09 08:45:02;;;;;;;11.75;3.30;;;;;;;22.37;31.24;102604.09;5096158;28;20016;-40
2022/05/09 08:47:57;;;;;;;13.32;3.22;;;;;;;22.95;31.83;102604.31;5096105;28;20031;-42
2022/05/09 08:50:49;;;;;;;12.23;3.05;;;;;;;22.93;31.42;102602.91;5095728;28;20020;-40
2022/05/09 08:53:22;;;;;;;13.45;3.22;;;;;;;22.80;31.71;102597.84;5096420;28;20054;-41
2022/05/09 08:55:48;;;;;;;12.45;3.22;;;;;;;23.47;31.21;102605.53;5095884;28;20020;-40
2022/05/09 08:58:39;;;;;;;13.73;3.17;;;;;;;23.39;30.41;102599.59;5095800;28;20027;-40
2022/05/09 09:01:12;;;;;;;13.65;2.92;;;;;;;23.59;30.61;102590.50;5095732;28;20316;-40
2022/05/09 09:03:43;;;;;;;10.75;3.10;;;;;;;24.05;29.42;102594.97;5094923;28;20031;-40
2022/05/09 09:06:11;;;;;;;13.13;2.83;;;;;;;23.22;29.43;102589.91;5094093;28;20111;-42
2022/05/09 09:08:58;;;;;;;13.35;3.03;;;;;;;23.06;29.21;102601.94;5094201;28;20045;-41
2022/05/09 09:11:41;;;;;;;8.50;2.45;;;;;;;22.92;29.75;102573.09;5054636;28;20035;-41
2022/05/09 09:14:09;;;;;;;10.75;2.88;;;;;;;23.35;31.37;102593.13;5095604;28;20055;-41
2022/05/09 09:16:53;;;;;;;11.10;2.85;;;;;;;23.06;30.69;102591.41;5095520;28;20028;-41
2022/05/09 09:19:55;;;;;;;10.95;2.90;;;;;;;22.45;30.35;102583.50;5095453;28;20035;-41
2022/05/09 09:22:52;;;;;;;8.45;2.60;;;;;;;23.64;31.22;102561.59;5095397;28;20020;-40
2022/05/09 09:25:30;;;;;;;10.95;2.78;;;;;;;24.25;29.40;102570.75;5094994;28;20048;-41
2022/05/09 09:28:06;;;;;;;12.15;2.72;;;;;;;24.57;28.49;102567.69;5095712;28;20077;-41
2022/05/09 09:30:31;;;;;;;11.55;3.00;;;;;;;24.10;29.02;102566.00;5095272;28;20073;-41
2022/05/09 09:33:00;;;;;;;10.50;2.70;;;;;;;24.12;28.62;102570.25;5095057;28;20448;-41
2022/05/09 09:35:34;;;;;;;13.25;3.10;;;;;;;23.62;29.26;102572.38;5094821;28;20107;-40
2022/05/09 09:38:22;;;;;;;11.95;2.83;;;;;;;23.41;29.47;102570.31;5095032;28;20027;-39
2022/05/09 09:40:48;;;;;;;11.07;2.92;;;;;;;23.61;28.81;102569.97;5093864;28;20482;-41
2022/05/09 09:43:13;;;;;;;9.35;2.42;;;;;;;23.86;29.58;102565.25;5095620;28;20031;-41
2022/05/09 09:45:44;;;;;;;10.48;2.70;;;;;;;24.82;29.05;102558.56;5094988;28;20016;-41
2022/05/09 09:48:18;;;;;;;20.08;3.58;;;;;;;23.89;28.89;102558.72;5094930;28;20050;-42
2022/05/09 09:51:01;;;;;;;11.95;2.90;;;;;;;22.73;30.74;102553.94;5094652;28;20070;-41
2022/05/09 09:53:48;;;;;;;13.95;3.22;;;;;;;22.44;31.78;102550.31;5094859;28;20352;-41
2022/05/09 09:56:22;;;;;;;11.50;2.92;;;;;;;24.08;29.52;102549.59;5094756;28;20579;-40
2022/05/09 09:58:55;;;;;;;8.45;2.55;;;;;;;24.47;29.47;102543.72;5094421;28;20070;-41
2022/05/09 10:01:25;;;;;;;10.73;2.53;;;;;;;24.88;28.94;102542.53;5093916;28;20031;-41
2022/05/09 10:04:23;;;;;;;10.27;2.80;;;;;;;25.50;27.23;102538.97;5093307;28;20438;-41
2022/05/09 10:07:08;;;;;;;15.45;2.67;;;;;;;24.55;27.38;102532.75;5094337;28;20030;-41
2022/05/09 10:09:59;;;;;;;12.15;2.67;;;;;;;24.90;27.98;102531.75;5094135;28;20022;-41
2022/05/09 10:12:29;;;;;;;10.27;3.00;;;;;;;24.25;28.65;102523.22;5094883;28;20024;-40
2022/05/09 10:14:55;;;;;;;11.27;3.17;;;;;;;23.23;29.76;102510.56;5092834;28;20024;-40
2022/05/09 10:17:26;;;;;;;13.65;3.25;;;;;;;23.55;29.50;102508.38;5092799;28;20035;-41
2022/05/09 10:19:56;;;;;;;11.57;3.10;;;;;;;23.30;29.08;102521.81;5094180;28;20028;-44
2022/05/09 10:25:22;;;;;;;10.15;2.95;;;;;;;23.88;28.63;102512.25;5094180;28;20398;-40
2022/05/09 10:28:14;;;;;;;10.82;3.03;;;;;;;24.64;29.42;102514.66;5094254;28;20052;-41
2022/05/09 10:30:47;;;;;;;9.68;2.63;;;;;;;25.48;28.41;102508.50;5093931;28;20031;-40
2022/05/09 10:33:33;;;;;;;8.70;2.60;;;;;;;25.08;28.28;102509.53;5094055;28;20024;-40
2022/05/09 10:36:04;;;;;;;10.10;3.03;;;;;;;23.97;28.34;102494.97;5093869;28;20363;-40
2022/05/09 10:38:56;;;;;;;10.52;2.85;;;;;;;24.27;27.95;102494.72;5094336;28;20077;-40
2022/05/09 10:41:28;;;;;;;12.13;3.67;;;;;;;23.74;30.32;102489.78;5092689;28;20382;-40
2022/05/09 10:44:29;;;;;;;12.95;3.10;;;;;;;24.67;28.72;102491.19;5094610;28;20038;-39
2022/05/09 10:47:01;;;;;;;12.35;3.03;;;;;;;25.07;28.18;102489.41;5079803;28;20031;-40
2022/05/09 10:49:34;;;;;;;9.67;2.67;;;;;;;25.95;28.05;102481.53;5093954;28;20048;-39
2022/05/09 10:52:10;;;;;;;9.95;2.60;;;;;;;25.55;27.08;102478.19;5093762;28;20532;-39
2022/05/09 10:54:45;;;;;;;9.15;2.78;;;;;;;24.37;27.36;102466.88;5093280;28;20431;-39
2022/05/09 10:57:35;;;;;;;9.80;3.05;;;;;;;23.82;28.45;102481.47;5093407;28;20031;-40
2022/05/09 11:00:11;;;;;;;12.38;3.45;;;;;;;24.79;28.02;102458.59;5092155;28;20020;-39
2022/05/09 11:02:40;;;;;;;16.33;3.25;;;;;;;25.09;27.03;102463.50;5093413;28;20089;-39
2022/05/09 11:05:06;;;;;;;11.18;2.50;;;;;;;25.55;28.59;102457.00;5093366;28;20051;-40
2022/05/09 11:07:57;;;;;;;9.70;2.80;;;;;;;25.17;27.53;102458.63;5093708;28;20020;-40
2022/05/09 11:10:32;;;;;;;10.27;2.60;;;;;;;25.35;27.17;102465.50;5093472;28;20073;-40
2022/05/09 11:13:09;;;;;;;5.07;2.17;;;;;;;25.57;27.19;102457.53;5093405;28;20024;-39
2022/05/09 11:15:44;;;;;;;10.75;2.55;;;;;;;25.37;28.10;102441.41;5093389;28;20020;-40
2022/05/09 11:18:50;;;;;;;11.63;2.65;;;;;;;24.79;28.13;102454.09;5093629;28;20089;-40
2022/05/09 11:21:42;;;;;;;8.63;2.75;;;;;;;24.84;28.45;102448.09;5092043;28;20020;-39
2022/05/09 11:24:13;;;;;;;11.95;2.88;;;;;;;24.67;27.24;102443.63;5093878;28;20056;-38
2022/05/09 11:26:52;;;;;;;8.25;2.70;;;;;;;24.17;27.76;102447.03;5093750;28;20068;-39
2022/05/09 11:29:24;;;;;;;10.93;2.30;;;;;;;25.47;27.22;102454.00;5093546;28;20020;-39
2022/05/09 11:32:20;;;;;;;8.60;2.55;;;;;;;26.58;26.05;102442.88;5093433;28;20028;-41
2022/05/09 11:35:07;;;;;;;8.02;2.15;;;;;;;26.87;25.33;102434.59;5093370;28;20020;-41
2022/05/09 11:38:12;;;;;;;9.82;2.25;;;;;;;25.77;26.16;102434.97;5093149;28;20390;-40